Time;durP1;ratioP1;P1;durP2;ratioP2;P2;SDS_P1;SDS_P2;PMS_P1;PMS_P2;Temp;Humidity;BMP_temperature;BMP_pressure;BME280_temperature;BME280_humidity;BME280_pressure;Samples;Min_cycle;Max_cycle;Signal;HPM_P1;HPM_P2
2024/01/05 00:01:10;;;;;;;;;;;10.50;99.90;;;;;;7332584;19;110031;-71
2024/01/05 00:03:37;;;;;;;;;;;10.50;99.90;;;;;;7329708;19;110222;-71
2024/01/05 00:06:05;;;;;;;;;;;10.50;99.90;;;;;;7328616;19;109787;-71
2024/01/05 00:08:32;;;;;;;;;;;10.50;99.90;;;;;;7329267;19;109672;-72
2024/01/05 00:10:59;;;;;;;;;;;10.50;99.90;;;;;;7332323;19;110234;-71
2024/01/05 00:13:26;;;;;;;;;;;10.50;99.90;;;;;;7329357;19;110701;-71
2024/01/05 00:15:53;;;;;;;;;;;10.40;99.90;;;;;;7327276;19;110134;-71
2024/01/05 00:18:20;;;;;;;;;;;10.40;99.90;;;;;;7329505;19;110069;-71
2024/01/05 00:20:48;;;;;;;;;;;10.40;99.90;;;;;;7328201;19;109210;-71
2024/01/05 00:23:15;;;;;;;;;;;10.40;99.90;;;;;;7328692;19;109664;-71
2024/01/05 00:25:42;;;;;;;;;;;10.40;99.90;;;;;;7329782;19;108737;-71
2024/01/05 00:28:09;;;;;;;;;;;10.30;99.90;;;;;;7328892;19;109333;-71
2024/01/05 00:30:36;;;;;;;;;;;10.30;99.90;;;;;;7330298;19;110532;-71
2024/01/05 00:33:04;;;;;;;;;;;10.40;99.90;;;;;;7333287;19;109284;-71
2024/01/05 00:35:31;;;;;;;;;;;10.40;99.90;;;;;;7329134;19;109458;-71
2024/01/05 00:37:58;;;;;;;;;;;10.40;99.90;;;;;;7330092;19;108559;-71
2024/01/05 00:40:25;;;;;;;;;;;10.40;99.90;;;;;;7328514;19;108704;-71
2024/01/05 00:42:53;;;;;;;;;;;10.40;99.90;;;;;;7328644;19;109454;-71
2024/01/05 00:45:20;;;;;;;;;;;10.40;99.90;;;;;;7330575;19;109518;-71
2024/01/05 00:47:47;;;;;;;;;;;10.40;99.90;;;;;;7326593;19;109660;-71
2024/01/05 00:50:15;;;;;;;;;;;10.40;99.90;;;;;;7327554;19;112228;-72
2024/01/05 00:52:42;;;;;;;;;;;10.50;99.90;;;;;;7326075;19;108427;-71
2024/01/05 00:55:09;;;;;;;;;;;10.50;99.90;;;;;;7331000;19;110243;-71
2024/01/05 00:57:36;;;;;;;;;;;10.50;99.90;;;;;;7326931;19;108913;-71
2024/01/05 01:00:04;;;;;;;;;;;10.50;99.90;;;;;;7324090;19;108693;-71
2024/01/05 01:02:31;;;;;;;;;;;10.60;99.90;;;;;;7328226;19;109813;-71
2024/01/05 01:04:59;;;;;;;;;;;10.60;99.90;;;;;;7325263;19;110528;-72
2024/01/05 01:07:26;;;;;;;;;;;10.60;99.90;;;;;;7325304;19;111154;-72
2024/01/05 01:09:53;;;;;;;;;;;10.60;99.90;;;;;;7333255;19;109525;-71
2024/01/05 01:12:21;;;;;;;;;;;10.60;99.90;;;;;;7332361;19;108668;-71
2024/01/05 01:14:48;;;;;;;;;;;10.70;99.90;;;;;;7328965;19;109056;-71
2024/01/05 01:17:15;;;;;;;;;;;10.70;99.90;;;;;;7338010;19;109132;-71
2024/01/05 01:19:42;;;;;;;;;;;10.70;99.90;;;;;;7330273;19;108715;-71
2024/01/05 01:22:09;;;;;;;;;;;10.70;99.90;;;;;;7331125;19;110496;-70
2024/01/05 01:24:36;;;;;;;;;;;10.70;99.90;;;;;;7331895;19;109051;-71
2024/01/05 01:27:07;;;;;;;;;;;10.70;99.90;;;;;;7327615;19;108762;-71
2024/01/05 01:29:35;;;;;;;;;;;10.70;99.90;;;;;;7330337;19;109261;-71
2024/01/05 01:32:02;;;;;;;;;;;10.70;99.90;;;;;;7328177;19;108694;-71
2024/01/05 01:34:29;;;;;;;;;;;10.80;99.90;;;;;;7330605;19;109421;-71
2024/01/05 01:36:56;;;;;;;;;;;10.80;99.90;;;;;;7329648;19;109319;-72
2024/01/05 01:39:23;;;;;;;;;;;10.80;99.90;;;;;;7338645;19;110174;-71
2024/01/05 01:41:50;;;;;;;;;;;10.70;99.90;;;;;;7329907;19;109960;-71
2024/01/05 01:44:17;;;;;;;;;;;10.80;99.90;;;;;;7327372;19;111136;-71
2024/01/05 01:46:44;;;;;;;;;;;10.80;99.90;;;;;;7330402;19;114224;-71
2024/01/05 01:49:12;;;;;;;;;;;10.80;99.90;;;;;;7330007;19;109480;-71
2024/01/05 01:51:40;;;;;;;;;;;10.80;99.90;;;;;;7334603;19;109140;-71
2024/01/05 01:54:07;;;;;;;;;;;10.80;99.90;;;;;;7330626;19;108881;-71
2024/01/05 01:56:35;;;;;;;;;;;10.80;99.90;;;;;;7332196;19;109621;-72
2024/01/05 01:59:03;;;;;;;;;;;10.80;99.90;;;;;;7330525;19;108659;-72
2024/01/05 02:01:31;;;;;;;;;;;10.90;99.90;;;;;;7333904;19;108773;-71
2024/01/05 02:03:58;;;;;;;;;;;10.80;99.90;;;;;;7327595;19;108772;-70
2024/01/05 02:06:25;;;;;;;;;;;10.90;99.90;;;;;;7330208;19;109234;-71
2024/01/05 02:08:53;;;;;;;;;;;10.90;99.90;;;;;;7328066;19;109767;-71
2024/01/05 02:11:20;;;;;;;;;;;10.90;99.90;;;;;;7333880;19;110051;-73
2024/01/05 02:13:48;;;;;;;;;;;10.80;99.90;;;;;;7333500;19;109336;-72
2024/01/05 02:16:15;;;;;;;;;;;10.90;99.90;;;;;;7336049;19;109323;-72
2024/01/05 02:18:49;;;;;;;;;;;10.90;99.90;;;;;;7335429;19;109089;-77
2024/01/05 02:21:17;;;;;;;;;;;10.90;99.90;;;;;;7344555;19;109695;-72
2024/01/05 02:23:44;;;;;;;;;;;10.90;99.90;;;;;;7336748;19;108442;-76
2024/01/05 02:26:11;;;;;;;;;;;10.90;99.90;;;;;;7334542;19;112035;-73
2024/01/05 02:28:38;;;;;;;;;;;10.90;99.90;;;;;;7335484;19;109274;-76
2024/01/05 02:31:06;;;;;;;;;;;10.90;99.90;;;;;;7336399;19;109418;-78
2024/01/05 02:33:33;;;;;;;;;;;10.90;99.90;;;;;;7336895;19;109590;-77
2024/01/05 02:36:00;;;;;;;;;;;10.90;99.90;;;;;;7338499;19;110523;-76
2024/01/05 02:38:27;;;;;;;;;;;10.90;99.90;;;;;;7333842;19;109365;-73
2024/01/05 02:40:55;;;;;;;;;;;10.90;99.90;;;;;;7337411;19;109045;-72
2024/01/05 02:43:22;;;;;;;;;;;10.90;99.90;;;;;;7343477;19;109197;-71
2024/01/05 02:45:50;;;;;;;;;;;10.90;99.90;;;;;;7335459;19;109092;-71
2024/01/05 02:48:17;;;;;;;;;;;10.90;99.90;;;;;;7336245;19;109238;-71
2024/01/05 02:50:44;;;;;;;;;;;10.90;99.90;;;;;;7336128;19;110474;-71
2024/01/05 02:53:11;;;;;;;;;;;11.00;99.90;;;;;;7338479;19;108820;-72
2024/01/05 02:55:38;;;;;;;;;;;11.00;99.90;;;;;;7332167;19;109668;-72
2024/01/05 02:58:05;;;;;;;;;;;10.90;99.90;;;;;;7335517;19;108431;-71
2024/01/05 03:00:32;;;;;;;;;;;10.90;99.90;;;;;;7334485;19;108957;-72
2024/01/05 03:03:00;;;;;;;;;;;10.90;99.90;;;;;;7337274;19;109212;-71
2024/01/05 03:05:27;;;;;;;;;;;10.90;99.90;;;;;;7338567;19;109963;-71
2024/01/05 03:07:54;;;;;;;;;;;10.90;99.90;;;;;;7336254;19;109787;-72
2024/01/05 03:10:22;;;;;;;;;;;11.00;99.90;;;;;;7334830;19;109570;-71
2024/01/05 03:12:51;;;;;;;;;;;10.90;99.90;;;;;;7335908;19;110338;-72
2024/01/05 03:15:18;;;;;;;;;;;10.90;99.90;;;;;;7332480;19;109565;-72
2024/01/05 03:17:47;;;;;;;;;;;11.00;99.90;;;;;;7338781;19;108862;-71
2024/01/05 03:20:17;;;;;;;;;;;10.90;99.90;;;;;;7332638;19;109799;-71
2024/01/05 03:22:44;;;;;;;;;;;11.00;99.90;;;;;;7333512;19;109681;-71
2024/01/05 03:25:11;;;;;;;;;;;10.90;99.90;;;;;;7335532;19;109448;-71
2024/01/05 03:27:39;;;;;;;;;;;10.90;99.90;;;;;;7338737;19;108758;-71
2024/01/05 03:30:06;;;;;;;;;;;10.90;99.90;;;;;;7332802;19;109704;-71
2024/01/05 03:32:34;;;;;;;;;;;10.90;99.90;;;;;;7336163;19;108470;-71
2024/01/05 03:35:01;;;;;;;;;;;10.90;99.90;;;;;;7331262;19;110390;-71
2024/01/05 03:37:28;;;;;;;;;;;10.90;99.90;;;;;;7336977;19;108456;-71
2024/01/05 03:39:55;;;;;;;;;;;10.90;99.90;;;;;;7335544;19;110157;-71
2024/01/05 03:42:22;;;;;;;;;;;10.90;99.90;;;;;;7333585;19;109301;-71
2024/01/05 03:44:49;;;;;;;;;;;10.90;99.90;;;;;;7335402;19;108641;-71
2024/01/05 03:47:16;;;;;;;;;;;10.90;99.90;;;;;;7336732;19;110772;-71
2024/01/05 03:49:43;;;;;;;;;;;10.90;99.90;;;;;;7337452;19;110431;-71
2024/01/05 03:52:11;;;;;;;;;;;10.90;99.90;;;;;;7330404;19;109268;-71
2024/01/05 03:54:38;;;;;;;;;;;10.90;99.90;;;;;;7331621;19;109769;-71
2024/01/05 03:57:05;;;;;;;;;;;10.90;99.90;;;;;;7333620;19;109088;-71
2024/01/05 03:59:33;;;;;;;;;;;10.90;99.90;;;;;;7334358;19;109355;-71
2024/01/05 04:02:00;;;;;;;;;;;10.90;99.90;;;;;;7328519;19;112656;-71
2024/01/05 04:04:27;;;;;;;;;;;10.90;99.90;;;;;;7333623;19;111462;-71
2024/01/05 04:06:55;;;;;;;;;;;10.90;99.90;;;;;;7332098;19;109148;-71
2024/01/05 04:09:22;;;;;;;;;;;10.90;99.90;;;;;;7333847;19;110509;-71
2024/01/05 04:11:51;;;;;;;;;;;11.00;99.90;;;;;;7342161;19;109240;-71
2024/01/05 04:14:18;;;;;;;;;;;11.00;99.90;;;;;;7330010;19;111135;-71
2024/01/05 04:16:46;;;;;;;;;;;11.00;99.90;;;;;;7333002;19;110060;-71
2024/01/05 04:19:13;;;;;;;;;;;11.00;99.90;;;;;;7334842;19;109879;-71
2024/01/05 04:21:41;;;;;;;;;;;11.10;99.90;;;;;;7330764;19;109203;-71
2024/01/05 04:24:08;;;;;;;;;;;11.10;99.90;;;;;;7333421;19;110277;-71
2024/01/05 04:26:35;;;;;;;;;;;11.10;99.90;;;;;;7336375;19;109807;-71
2024/01/05 04:29:03;;;;;;;;;;;11.10;99.90;;;;;;7329631;19;109837;-71
2024/01/05 04:31:30;;;;;;;;;;;11.00;99.90;;;;;;7340400;19;108935;-71
2024/01/05 04:33:57;;;;;;;;;;;11.00;99.90;;;;;;7329654;19;109770;-71
2024/01/05 04:36:24;;;;;;;;;;;11.00;99.90;;;;;;7334715;19;108892;-71
2024/01/05 04:38:52;;;;;;;;;;;10.90;99.90;;;;;;7332394;19;108377;-71
2024/01/05 04:41:19;;;;;;;;;;;10.90;99.90;;;;;;7336087;19;110176;-71
2024/01/05 04:43:46;;;;;;;;;;;10.90;99.90;;;;;;7331357;19;108438;-71
2024/01/05 04:46:13;;;;;;;;;;;10.90;99.90;;;;;;7332515;19;110501;-71
2024/01/05 04:48:40;;;;;;;;;;;10.90;99.90;;;;;;7331500;19;110526;-71
2024/01/05 04:51:07;;;;;;;;;;;10.90;99.90;;;;;;7330891;19;108956;-71
2024/01/05 04:53:34;;;;;;;;;;;10.90;99.90;;;;;;7337307;19;108478;-71
2024/01/05 04:56:03;;;;;;;;;;;10.90;99.90;;;;;;7332743;19;108675;-71
2024/01/05 04:58:30;;;;;;;;;;;10.80;99.90;;;;;;7334433;19;109837;-71
2024/01/05 05:00:57;;;;;;;;;;;10.80;99.90;;;;;;7330624;19;110089;-71
2024/01/05 05:03:26;;;;;;;;;;;10.80;99.90;;;;;;7332670;19;108942;-71
2024/01/05 05:05:53;;;;;;;;;;;10.80;99.90;;;;;;7328342;19;111158;-70
2024/01/05 05:08:20;;;;;;;;;;;10.80;99.90;;;;;;7329635;19;109369;-70
2024/01/05 05:10:48;;;;;;;;;;;10.70;99.90;;;;;;7332470;19;108830;-70
2024/01/05 05:13:15;;;;;;;;;;;10.80;99.90;;;;;;7333730;19;111269;-71
2024/01/05 05:15:42;;;;;;;;;;;10.80;99.90;;;;;;7336061;19;109156;-70
2024/01/05 05:18:09;;;;;;;;;;;10.70;99.90;;;;;;7329723;19;110335;-71
2024/01/05 05:20:36;;;;;;;;;;;10.70;99.90;;;;;;7334439;19;110275;-71
2024/01/05 05:23:03;;;;;;;;;;;10.60;99.90;;;;;;7326707;19;110699;-71
2024/01/05 05:25:31;;;;;;;;;;;10.60;99.90;;;;;;7331020;19;110872;-71
2024/01/05 05:27:58;;;;;;;;;;;10.60;99.90;;;;;;7331319;19;109235;-71
2024/01/05 05:30:25;;;;;;;;;;;10.50;99.90;;;;;;7331138;19;108360;-71
2024/01/05 05:32:52;;;;;;;;;;;10.50;99.90;;;;;;7330547;19;109426;-71
2024/01/05 05:35:20;;;;;;;;;;;10.40;99.90;;;;;;7327737;19;109832;-71
2024/01/05 05:37:47;;;;;;;;;;;10.40;99.90;;;;;;7337710;19;108687;-70
2024/01/05 05:40:14;;;;;;;;;;;10.40;99.90;;;;;;7324686;19;111429;-71
2024/01/05 05:42:41;;;;;;;;;;;10.40;99.90;;;;;;7332667;19;108748;-71
2024/01/05 05:45:08;;;;;;;;;;;10.40;99.90;;;;;;7329420;19;109492;-71
2024/01/05 05:47:35;;;;;;;;;;;10.30;99.90;;;;;;7329838;19;109278;-71
2024/01/05 05:50:06;;;;;;;;;;;10.30;99.90;;;;;;7330199;19;108763;-70
2024/01/05 05:52:34;;;;;;;;;;;10.20;99.90;;;;;;7330267;19;108848;-70
2024/01/05 05:55:02;;;;;;;;;;;10.30;99.90;;;;;;7328983;19;111474;-71
2024/01/05 05:57:31;;;;;;;;;;;10.30;99.90;;;;;;7328473;19;113225;-71
2024/01/05 06:00:02;;;;;;;;;;;10.30;99.90;;;;;;7336692;19;109219;-71
2024/01/05 06:02:29;;;;;;;;;;;10.20;99.90;;;;;;7332169;19;108509;-71
2024/01/05 06:04:56;;;;;;;;;;;10.20;99.90;;;;;;7327993;19;110435;-71
2024/01/05 06:07:24;;;;;;;;;;;10.20;99.90;;;;;;7329270;19;111468;-69
2024/01/05 06:09:51;;;;;;;;;;;10.20;99.90;;;;;;7330991;19;108555;-71
2024/01/05 06:12:18;;;;;;;;;;;10.20;99.90;;;;;;7326953;19;109466;-70
2024/01/05 06:14:45;;;;;;;;;;;10.20;99.90;;;;;;7322748;19;109462;-70
2024/01/05 06:17:12;;;;;;;;;;;10.10;99.90;;;;;;7327080;19;108662;-71
2024/01/05 06:19:39;;;;;;;;;;;10.10;99.90;;;;;;7332010;19;109133;-71
2024/01/05 06:22:07;;;;;;;;;;;10.10;99.90;;;;;;7327542;19;109364;-71
2024/01/05 06:24:34;;;;;;;;;;;10.10;99.90;;;;;;7328315;19;109410;-71
2024/01/05 06:27:02;;;;;;;;;;;10.10;99.90;;;;;;7326271;19;112875;-71
2024/01/05 06:29:29;;;;;;;;;;;10.10;99.90;;;;;;7328806;19;109173;-70
2024/01/05 06:31:57;;;;;;;;;;;10.00;99.90;;;;;;7327803;19;110384;-71
2024/01/05 06:34:24;;;;;;;;;;;10.00;99.90;;;;;;7328325;19;109447;-71
2024/01/05 06:36:51;;;;;;;;;;;10.00;99.90;;;;;;7326527;19;108871;-71
2024/01/05 06:39:18;;;;;;;;;;;10.00;99.90;;;;;;7328993;19;108888;-71
2024/01/05 06:41:45;;;;;;;;;;;9.90;99.90;;;;;;7333589;19;109128;-71
2024/01/05 06:44:12;;;;;;;;;;;10.00;99.90;;;;;;7328851;19;109450;-71
2024/01/05 06:46:39;;;;;;;;;;;9.90;99.90;;;;;;7324792;19;112146;-70
2024/01/05 06:49:06;;;;;;;;;;;9.90;99.90;;;;;;7324963;19;109635;-71
2024/01/05 06:51:37;;;;;;;;;;;9.90;99.90;;;;;;7329410;19;108921;-71
2024/01/05 06:54:05;;;;;;;;;;;9.80;99.90;;;;;;7327206;19;109828;-68
2024/01/05 06:56:32;;;;;;;;;;;9.90;99.90;;;;;;7327179;19;108660;-67
2024/01/05 06:59:04;;;;;;;;;;;9.80;99.90;;;;;;7330125;19;114367;-70
2024/01/05 07:01:31;;;;;;;;;;;9.80;99.90;;;;;;7334185;19;109922;-67
2024/01/05 07:03:59;;;;;;;;;;;9.80;99.90;;;;;;7342198;19;108728;-73
2024/01/05 07:06:26;;;;;;;;;;;9.80;99.90;;;;;;7331321;19;109750;-69
2024/01/05 07:08:53;;;;;;;;;;;9.70;99.90;;;;;;7333394;19;108869;-68
2024/01/05 07:11:23;;;;;;;;;;;9.70;99.90;;;;;;7331366;19;109291;-67
2024/01/05 07:13:51;;;;;;;;;;;9.80;99.90;;;;;;7333042;19;110095;-67
2024/01/05 07:16:22;;;;;;;;;;;9.70;99.90;;;;;;7335021;19;108353;-66
2024/01/05 07:18:50;;;;;;;;;;;9.70;99.90;;;;;;7331084;19;110983;-66
2024/01/05 07:21:17;;;;;;;;;;;9.60;99.90;;;;;;7336462;19;110259;-67
2024/01/05 07:23:44;;;;;;;;;;;9.60;99.90;;;;;;7333560;19;110255;-66
2024/01/05 07:26:12;;;;;;;;;;;9.60;99.90;;;;;;7339478;19;108886;-66
2024/01/05 07:28:39;;;;;;;;;;;9.60;99.90;;;;;;7334365;19;108734;-66
2024/01/05 07:31:07;;;;;;;;;;;9.60;99.90;;;;;;7334397;19;108180;-66
2024/01/05 07:33:34;;;;;;;;;;;9.50;99.90;;;;;;7334585;19;109405;-66
2024/01/05 07:36:04;;;;;;;;;;;9.50;99.90;;;;;;7332805;19;108991;-66
2024/01/05 07:38:35;;;;;;;;;;;9.50;99.90;;;;;;7333057;19;108913;-66
2024/01/05 07:41:02;;;;;;;;;;;9.50;99.90;;;;;;7335019;19;109228;-66
2024/01/05 07:43:29;;;;;;;;;;;9.40;99.90;;;;;;7334517;19;108889;-66
2024/01/05 07:45:56;;;;;;;;;;;9.40;99.90;;;;;;7331049;19;111152;-66
2024/01/05 07:48:23;;;;;;;;;;;9.40;99.90;;;;;;7337939;19;110295;-66
2024/01/05 07:50:51;;;;;;;;;;;9.30;99.90;;;;;;7332460;19;108729;-66
2024/01/05 07:53:18;;;;;;;;;;;9.30;99.90;;;;;;7332303;19;109567;-66
2024/01/05 07:55:45;;;;;;;;;;;9.20;99.90;;;;;;7334293;19;109382;-65
2024/01/05 07:58:12;;;;;;;;;;;9.20;99.90;;;;;;7335229;19;109498;-65
2024/01/05 08:00:39;;;;;;;;;;;9.20;99.90;;;;;;7332756;19;109577;-65
2024/01/05 08:03:06;;;;;;;;;;;9.10;99.90;;;;;;7332938;19;109125;-66
2024/01/05 08:05:35;;;;;;;;;;;9.00;99.90;;;;;;7334372;19;109149;-67
2024/01/05 08:08:03;;;;;;;;;;;9.00;99.90;;;;;;7329780;19;110880;-65
2024/01/05 08:10:30;;;;;;;;;;;9.00;99.90;;;;;;7337575;19;110407;-66
2024/01/05 08:13:01;;;;;;;;;;;8.80;99.90;;;;;;7334674;19;110488;-65
2024/01/05 08:15:28;;;;;;;;;;;8.70;99.90;;;;;;7332408;19;109318;-65
2024/01/05 08:17:56;;;;;;;;;;;8.70;99.90;;;;;;7333198;19;109419;-66
2024/01/05 08:20:23;;;;;;;;;;;8.70;99.90;;;;;;7331524;19;110399;-65
2024/01/05 08:22:51;;;;;;;;;;;8.70;99.90;;;;;;7333162;19;109068;-65
2024/01/05 08:25:18;;;;;;;;;;;8.60;99.90;;;;;;7334057;19;109155;-65
2024/01/05 08:27:49;;;;;;;;;;;8.60;99.90;;;;;;7330574;19;110316;-65
2024/01/05 08:30:16;;;;;;;;;;;8.50;99.90;;;;;;7337744;19;108548;-65
2024/01/05 08:32:43;;;;;;;;;;;8.50;99.90;;;;;;7332614;19;109227;-65
2024/01/05 08:35:11;;;;;;;;;;;8.50;99.90;;;;;;7329005;19;109028;-65
2024/01/05 08:37:38;;;;;;;;;;;8.50;99.90;;;;;;7331544;19;109158;-65
2024/01/05 08:40:07;;;;;;;;;;;8.50;99.90;;;;;;7328429;19;109758;-65
2024/01/05 08:42:35;;;;;;;;;;;8.50;99.90;;;;;;7332655;19;108922;-65
2024/01/05 08:45:02;;;;;;;;;;;8.50;99.90;;;;;;7330427;19;109110;-65
2024/01/05 08:47:29;;;;;;;;;;;8.40;99.90;;;;;;7329454;19;109753;-65
2024/01/05 08:49:56;;;;;;;;;;;8.50;99.90;;;;;;7330645;19;108402;-65
2024/01/05 08:52:23;;;;;;;;;;;8.40;99.90;;;;;;7334546;19;110819;-65
2024/01/05 08:54:51;;;;;;;;;;;8.40;99.90;;;;;;7329341;19;108969;-65
2024/01/05 08:57:18;;;;;;;;;;;8.50;99.90;;;;;;7334262;19;109216;-65
2024/01/05 08:59:45;;;;;;;;;;;8.40;99.90;;;;;;7331293;19;110094;-65
2024/01/05 09:02:12;;;;;;;;;;;8.40;99.90;;;;;;7334148;19;108595;-65
2024/01/05 09:04:39;;;;;;;;;;;8.40;99.90;;;;;;7327595;19;110195;-65
2024/01/05 09:07:07;;;;;;;;;;;8.40;99.90;;;;;;7330915;19;109731;-65
2024/01/05 09:09:34;;;;;;;;;;;8.40;99.90;;;;;;7329702;19;108545;-65
2024/01/05 09:12:02;;;;;;;;;;;8.40;99.90;;;;;;7331567;19;109025;-65
2024/01/05 09:14:30;;;;;;;;;;;8.40;99.90;;;;;;7334008;19;111828;-65
2024/01/05 09:16:58;;;;;;;;;;;8.40;99.90;;;;;;7326113;19;109083;-65
2024/01/05 09:19:25;;;;;;;;;;;8.40;99.90;;;;;;7329444;19;110144;-65
2024/01/05 09:21:52;;;;;;;;;;;8.40;99.90;;;;;;7329980;19;109050;-65
2024/01/05 09:24:19;;;;;;;;;;;8.50;99.90;;;;;;7330519;19;110446;-65
2024/01/05 09:26:49;;;;;;;;;;;8.40;99.90;;;;;;7328023;19;109536;-65
2024/01/05 09:29:16;;;;;;;;;;;8.40;99.90;;;;;;7329509;19;109895;-65
2024/01/05 09:31:46;;;;;;;;;;;8.50;99.90;;;;;;7328540;19;109294;-65
2024/01/05 09:34:13;;;;;;;;;;;8.50;99.90;;;;;;7330400;19;110601;-65
2024/01/05 09:36:41;;;;;;;;;;;8.50;99.90;;;;;;7334121;19;111271;-65
2024/01/05 09:39:11;;;;;;;;;;;8.50;99.90;;;;;;7325329;19;109915;-65
2024/01/05 09:41:40;;;;;;;;;;;8.50;99.90;;;;;;7325936;19;108951;-65
2024/01/05 09:44:10;;;;;;;;;;;8.50;99.90;;;;;;7331544;19;109824;-65
2024/01/05 09:46:41;;;;;;;;;;;8.60;99.90;;;;;;7329531;19;109907;-65
2024/01/05 09:49:08;;;;;;;;;;;8.60;99.90;;;;;;7330716;19;108998;-65
2024/01/05 09:51:36;;;;;;;;;;;8.60;99.90;;;;;;7329916;19;110588;-65
2024/01/05 09:54:04;;;;;;;;;;;8.60;99.90;;;;;;7328004;19;109797;-65
2024/01/05 09:56:31;;;;;;;;;;;8.60;99.90;;;;;;7329764;19;108904;-65
2024/01/05 09:58:58;;;;;;;;;;;8.60;99.90;;;;;;7334522;19;109039;-65
2024/01/05 10:01:30;;;;;;;;;;;8.70;99.90;;;;;;7326287;19;108919;-65
2024/01/05 10:03:58;;;;;;;;;;;8.70;99.90;;;;;;7329605;19;108735;-65
2024/01/05 10:06:25;;;;;;;;;;;8.70;99.90;;;;;;7327374;19;109978;-65
2024/01/05 10:08:54;;;;;;;;;;;8.70;99.90;;;;;;7329428;19;108486;-65
2024/01/05 10:11:29;;;;;;;;;;;8.70;99.90;;;;;;7328804;19;109445;-65
2024/01/05 10:14:04;;;;;;;;;;;8.70;99.90;;;;;;7329363;19;109470;-65
2024/01/05 10:16:36;;;;;;;;;;;8.70;99.90;;;;;;7329271;19;109239;-65
2024/01/05 10:19:14;;;;;;;;;;;8.70;99.90;;;;;;7330122;19;109130;-65
2024/01/05 10:21:45;;;;;;;;;;;8.70;99.90;;;;;;7333531;19;109565;-65
2024/01/05 10:24:22;;;;;;;;;;;8.70;99.90;;;;;;7325954;19;109113;-65
2024/01/05 10:27:00;;;;;;;;;;;8.70;99.90;;;;;;7333234;19;109595;-65
2024/01/05 10:29:28;;;;;;;;;;;8.80;99.90;;;;;;7334542;19;108669;-65
2024/01/05 10:32:12;;;;;;;;;;;8.80;99.90;;;;;;7332839;19;110863;-65
2024/01/05 10:34:41;;;;;;;;;;;8.80;99.90;;;;;;7333713;19;113361;-65
2024/01/05 10:37:09;;;;;;;;;;;8.80;99.90;;;;;;7337174;19;108696;-65
2024/01/05 10:39:37;;;;;;;;;;;8.70;99.90;;;;;;7335327;19;108832;-65
2024/01/05 10:42:22;;;;;;;;;;;8.70;99.90;;;;;;7340616;19;110582;-65
2024/01/05 10:44:51;;;;;;;;;;;8.80;99.90;;;;;;7335905;19;109145;-71
2024/01/05 10:47:19;;;;;;;;;;;8.70;99.90;;;;;;7334926;19;110254;-66
2024/01/05 10:49:49;;;;;;;;;;;8.70;99.90;;;;;;7335870;19;109025;-66
2024/01/05 10:52:17;;;;;;;;;;;8.80;99.90;;;;;;7335887;19;109255;-73
2024/01/05 10:54:50;;;;;;;;;;;8.80;99.90;;;;;;7330933;19;128769;-73
2024/01/05 10:57:18;;;;;;;;;;;8.80;99.90;;;;;;7335829;19;108662;-71
2024/01/05 10:59:54;;;;;;;;;;;8.80;99.90;;;;;;7334903;19;109403;-65
2024/01/05 11:02:24;;;;;;;;;;;8.80;99.90;;;;;;7333552;19;109122;-64
2024/01/05 11:05:07;;;;;;;;;;;8.80;99.90;;;;;;7339416;19;108716;-65
2024/01/05 11:07:34;;;;;;;;;;;8.80;99.90;;;;;;7334107;19;109826;-65
2024/01/05 11:10:08;;;;;;;;;;;8.80;99.90;;;;;;7332912;19;109526;-65
2024/01/05 11:12:44;;;;;;;;;;;8.80;99.90;;;;;;7332486;19;109027;-65
2024/01/05 11:15:20;;;;;;;;;;;8.80;99.90;;;;;;7331685;19;109133;-65
2024/01/05 11:18:03;;;;;;;;;;;8.80;99.90;;;;;;7333308;19;110028;-65
2024/01/05 11:20:38;;;;;;;;;;;8.90;99.90;;;;;;7334107;19;108999;-65
2024/01/05 11:23:08;;;;;;;;;;;8.90;99.90;;;;;;7332758;19;110204;-65
2024/01/05 11:25:35;;;;;;;;;;;8.90;99.90;;;;;;7334375;19;108985;-65
2024/01/05 11:28:03;;;;;;;;;;;9.00;99.90;;;;;;7336777;19;109435;-65
2024/01/05 11:30:44;;;;;;;;;;;9.00;99.90;;;;;;7334207;19;110129;-65
2024/01/05 11:33:30;;;;;;;;;;;9.00;99.90;;;;;;7333251;19;109275;-65
2024/01/05 11:36:06;;;;;;;;;;;9.00;99.90;;;;;;7331478;19;110521;-65
2024/01/05 11:38:33;;;;;;;;;;;9.00;99.90;;;;;;7334597;19;109236;-65
2024/01/05 11:41:14;;;;;;;;;;;9.00;99.90;;;;;;7334172;19;108601;-65
2024/01/05 11:43:42;;;;;;;;;;;9.00;99.90;;;;;;7330848;19;109513;-66
2024/01/05 11:46:09;;;;;;;;;;;8.90;99.90;;;;;;7332885;19;109712;-65
2024/01/05 11:48:36;;;;;;;;;;;8.90;99.90;;;;;;7331703;19;108830;-65
2024/01/05 11:51:08;;;;;;;;;;;8.90;99.90;;;;;;7336550;19;110196;-65
2024/01/05 11:53:36;;;;;;;;;;;8.90;99.90;;;;;;7331990;19;108795;-65
2024/01/05 11:56:07;;;;;;;;;;;8.90;99.90;;;;;;7331040;19;110254;-65
2024/01/05 11:58:36;;;;;;;;;;;8.80;99.90;;;;;;7334204;19;109215;-65
2024/01/05 12:01:05;;;;;;;;;;;8.90;99.90;;;;;;7331947;19;108925;-65
2024/01/05 12:03:33;;;;;;;;;;;8.90;99.90;;;;;;7331664;19;109215;-65
2024/01/05 12:06:01;;;;;;;;;;;8.90;99.90;;;;;;7331488;19;109364;-65
2024/01/05 12:08:29;;;;;;;;;;;8.90;99.90;;;;;;7332670;19;109168;-65
2024/01/05 12:10:57;;;;;;;;;;;8.90;99.90;;;;;;7331838;19;109193;-65
2024/01/05 12:13:26;;;;;;;;;;;9.00;99.90;;;;;;7338708;19;109235;-65
2024/01/05 12:15:54;;;;;;;;;;;9.00;99.90;;;;;;7332443;19;109131;-65
2024/01/05 12:18:29;;;;;;;;;;;9.00;99.90;;;;;;7332786;19;109373;-65
2024/01/05 12:21:05;;;;;;;;;;;8.90;99.90;;;;;;7332169;19;108805;-65
2024/01/05 12:23:34;;;;;;;;;;;8.90;99.90;;;;;;7333021;19;109428;-65
2024/01/05 12:26:03;;;;;;;;;;;8.90;99.90;;;;;;7329489;19;109069;-65
2024/01/05 12:28:34;;;;;;;;;;;8.90;99.90;;;;;;7333407;19;109040;-68
2024/01/05 12:31:02;;;;;;;;;;;8.90;99.90;;;;;;7330557;19;110097;-65
2024/01/05 12:33:30;;;;;;;;;;;8.90;99.90;;;;;;7330459;19;110182;-66
2024/01/05 12:35:58;;;;;;;;;;;8.90;99.90;;;;;;7336803;19;110969;-65
2024/01/05 12:38:26;;;;;;;;;;;8.90;99.90;;;;;;7330772;19;108653;-65
2024/01/05 12:41:04;;;;;;;;;;;8.90;99.90;;;;;;7330555;19;110142;-65
2024/01/05 12:43:32;;;;;;;;;;;8.90;99.90;;;;;;7333380;19;109345;-65
2024/01/05 12:46:00;;;;;;;;;;;8.90;99.90;;;;;;7326522;19;109435;-65
2024/01/05 12:48:27;;;;;;;;;;;8.90;99.90;;;;;;7328448;19;109078;-65
2024/01/05 12:51:08;;;;;;;;;;;8.90;99.90;;;;;;7328159;19;109324;-65
2024/01/05 12:53:35;;;;;;;;;;;8.90;99.90;;;;;;7331862;19;109055;-65
2024/01/05 12:56:06;;;;;;;;;;;8.90;99.90;;;;;;7335107;19;109446;-65
2024/01/05 12:58:39;;;;;;;;;;;8.90;99.90;;;;;;7332758;19;109321;-65
2024/01/05 13:01:28;;;;;;;;;;;8.90;99.90;;;;;;7330692;19;109682;-65
2024/01/05 13:03:56;;;;;;;;;;;8.90;99.90;;;;;;7327594;19;110091;-65
2024/01/05 13:06:27;;;;;;;;;;;8.80;99.90;;;;;;7330891;19;110697;-65
2024/01/05 13:08:55;;;;;;;;;;;8.80;99.90;;;;;;7330388;19;109169;-65
2024/01/05 13:11:22;;;;;;;;;;;8.80;99.90;;;;;;7329679;19;110183;-65
2024/01/05 13:13:50;;;;;;;;;;;8.80;99.90;;;;;;7333199;19;112415;-65
2024/01/05 13:16:17;;;;;;;;;;;8.80;99.90;;;;;;7331291;19;109277;-65
2024/01/05 13:18:45;;;;;;;;;;;8.80;99.90;;;;;;7335934;19;109406;-65
2024/01/05 13:21:12;;;;;;;;;;;8.80;99.90;;;;;;7331821;19;109186;-65
2024/01/05 13:23:42;;;;;;;;;;;8.80;99.90;;;;;;7328937;19;109651;-65
2024/01/05 13:26:09;;;;;;;;;;;8.90;99.90;;;;;;7329206;19;110410;-65
2024/01/05 13:28:36;;;;;;;;;;;8.90;99.90;;;;;;7330350;19;108374;-65
2024/01/05 13:31:04;;;;;;;;;;;8.80;99.90;;;;;;7329268;19;109310;-65
2024/01/05 13:33:32;;;;;;;;;;;8.80;99.90;;;;;;7329572;19;108393;-65
2024/01/05 13:36:00;;;;;;;;;;;8.90;99.90;;;;;;7328819;19;110670;-65
2024/01/05 13:38:27;;;;;;;;;;;8.90;99.90;;;;;;7327633;19;109248;-65
2024/01/05 13:40:54;;;;;;;;;;;8.90;99.90;;;;;;7335890;19;108534;-65
2024/01/05 13:43:21;;;;;;;;;;;8.90;99.90;;;;;;7330475;19;109107;-65
2024/01/05 13:45:51;;;;;;;;;;;8.90;99.90;;;;;;7328709;19;108531;-65
2024/01/05 13:48:18;;;;;;;;;;;8.90;99.90;;;;;;7331922;19;108555;-65
2024/01/05 13:50:46;;;;;;;;;;;8.80;99.90;;;;;;7326595;19;110309;-64
2024/01/05 13:53:14;;;;;;;;;;;8.90;99.90;;;;;;7330259;19;109190;-65
2024/01/05 13:55:41;;;;;;;;;;;8.90;99.90;;;;;;7329039;19;108863;-65
2024/01/05 13:58:08;;;;;;;;;;;8.90;99.90;;;;;;7327680;19;110080;-65
2024/01/05 14:00:35;;;;;;;;;;;8.90;99.90;;;;;;7329822;19;108902;-65
2024/01/05 14:03:03;;;;;;;;;;;8.90;99.90;;;;;;7334794;19;108640;-65
2024/01/05 14:05:30;;;;;;;;;;;8.80;99.90;;;;;;7326962;19;109239;-65
2024/01/05 14:07:58;;;;;;;;;;;8.80;99.90;;;;;;7334242;19;108611;-65
2024/01/05 14:10:26;;;;;;;;;;;8.80;99.90;;;;;;7336643;19;109954;-65
2024/01/05 14:12:53;;;;;;;;;;;8.80;99.90;;;;;;7335113;19;109058;-65
2024/01/05 14:15:23;;;;;;;;;;;8.80;99.90;;;;;;7336837;19;108613;-65
2024/01/05 14:17:51;;;;;;;;;;;8.80;99.90;;;;;;7335559;19;110138;-65